Time;durP1;ratioP1;P1;durP2;ratioP2;P2;SDS_P1;SDS_P2;PMS_P1;PMS_P2;Temp;Humidity;BMP_temperature;BMP_pressure;BME280_temperature;BME280_humidity;BME280_pressure;Samples;Min_cycle;Max_cycle;Signal;HPM_P1;HPM_P2
2021/09/07 00:00:32;;;;;;;;;28.00;25.80;;;;;15.23;51.37;99600.78;6161526;28;97231;-60
2021/09/07 00:03:36;;;;;;;;;33.40;28.40;;;;;15.16;50.92;99605.50;6163849;28;97392;-62
2021/09/07 00:06:40;;;;;;;;;30.20;28.00;;;;;15.16;50.54;99594.63;6160413;28;97564;-61
2021/09/07 00:09:43;;;;;;;;;24.00;24.00;;;;;15.17;50.54;99599.84;6161118;28;96668;-60
2021/09/07 00:12:47;;;;;;;;;26.50;25.00;;;;;15.23;50.56;99606.22;6160081;28;97192;-61
2021/09/07 00:15:51;;;;;;;;;27.50;24.50;;;;;15.27;50.17;99601.16;6160522;28;97400;-61
2021/09/07 00:18:55;;;;;;;;;27.60;25.00;;;;;15.30;50.24;99604.22;6143932;28;96748;-61
2021/09/07 00:21:59;;;;;;;;;27.40;25.60;;;;;15.24;50.16;99597.03;6142552;28;97246;-60
2021/09/07 00:25:04;;;;;;;;;25.00;24.00;;;;;15.24;50.09;99597.03;6139916;28;96745;-62
2021/09/07 00:28:11;;;;;;;;;26.80;24.00;;;;;15.16;50.25;99598.19;6142744;28;97187;-62
2021/09/07 00:31:14;;;;;;;;;26.60;25.00;;;;;15.18;51.34;99598.78;6141900;28;97929;-61
2021/09/07 00:34:18;;;;;;;;;25.00;24.00;;;;;15.16;50.68;99597.34;6130008;28;97653;-61
2021/09/07 00:37:23;;;;;;;;;27.80;25.00;;;;;15.16;50.86;99587.31;6152562;28;97529;-61
2021/09/07 00:40:26;;;;;;;;;23.40;22.40;;;;;15.17;51.09;99585.44;6160666;28;96603;-60
2021/09/07 00:43:29;;;;;;;;;25.50;24.00;;;;;15.18;51.57;99584.38;6157559;28;97006;-60
2021/09/07 00:46:33;;;;;;;;;24.20;23.00;;;;;15.15;50.89;99582.09;6161584;28;97431;-61
2021/09/07 00:49:37;;;;;;;;;25.40;23.00;;;;;15.15;50.73;99592.97;6160929;28;97450;-61
2021/09/07 00:52:43;;;;;;;;;27.50;25.50;;;;;15.10;51.08;99580.09;6161507;28;97543;-61
2021/09/07 00:55:47;;;;;;;;;27.20;24.80;;;;;15.11;50.63;99583.66;6160170;28;96720;-61
2021/09/07 00:58:53;;;;;;;;;25.40;25.40;;;;;15.07;50.67;99577.84;6161682;28;96425;-61
2021/09/07 01:01:59;;;;;;;;;24.40;23.00;;;;;15.08;50.69;99576.81;6140261;28;97320;-61
2021/09/07 01:05:02;;;;;;;;;24.25;21.75;;;;;15.10;50.53;99574.66;6161065;28;97383;-61
2021/09/07 01:08:08;;;;;;;;;25.00;23.50;;;;;15.12;50.40;99574.44;6160304;28;97113;-61
2021/09/07 01:11:14;;;;;;;;;24.50;22.50;;;;;15.18;50.50;99576.22;6159707;28;97634;-61
2021/09/07 01:14:18;;;;;;;;;24.60;22.60;;;;;15.18;50.54;99576.22;6159918;28;97469;-61
2021/09/07 01:17:22;;;;;;;;;24.75;21.50;;;;;15.18;50.78;99574.34;6144902;28;99567;-61
2021/09/07 01:20:25;;;;;;;;;24.60;22.00;;;;;15.18;50.87;99576.22;6161929;28;97434;-60
2021/09/07 01:23:31;;;;;;;;;23.40;22.60;;;;;15.13;50.85;99570.66;6142769;28;96598;-62
2021/09/07 01:26:36;;;;;;;;;25.00;23.00;;;;;15.11;50.95;99570.06;6126806;28;99080;-61
2021/09/07 01:29:41;;;;;;;;;23.00;21.25;;;;;15.10;51.34;99568.44;6142278;28;98341;-61
2021/09/07 01:32:46;;;;;;;;;23.00;22.60;;;;;15.07;51.30;99566.16;6149675;28;97580;-61
2021/09/07 01:35:50;;;;;;;;;26.00;24.00;;;;;15.03;51.08;99571.25;6156089;28;98310;-61
2021/09/07 01:38:53;;;;;;;;;24.00;22.00;;;;;14.96;51.00;99558.81;6164897;28;97237;-61
2021/09/07 01:41:58;;;;;;;;;25.00;23.00;;;;;14.95;50.78;99568.06;6166634;28;97488;-60
2021/09/07 01:45:02;;;;;;;;;23.25;21.25;;;;;14.89;50.80;99567.09;6169428;28;97564;-60
2021/09/07 01:48:06;;;;;;;;;23.40;22.40;;;;;14.84;50.72;99564.25;6154558;28;97686;-60
2021/09/07 01:51:10;;;;;;;;;25.00;22.00;;;;;14.83;50.80;99564.47;6166762;28;96461;-60
2021/09/07 01:54:14;;;;;;;;;24.00;22.40;;;;;14.82;50.66;99563.63;6144300;28;98791;-61
2021/09/07 01:57:21;;;;;;;;;26.00;25.00;;;;;14.81;50.74;99564.69;6160623;28;97147;-62
2021/09/07 02:00:24;;;;;;;;;22.40;21.00;;;;;14.84;50.58;99564.25;6165264;28;97416;-61
2021/09/07 02:03:27;;;;;;;;;24.20;22.00;;;;;14.84;50.59;99558.00;6147584;28;97052;-61
2021/09/07 02:06:32;;;;;;;;;22.00;21.00;;;;;14.89;50.44;99560.84;6165430;28;96837;-60
2021/09/07 02:09:37;;;;;;;;;19.00;18.50;;;;;14.88;50.59;99559.16;6147873;28;96682;-60
2021/09/07 02:12:42;;;;;;;;;22.00;20.20;;;;;14.91;50.73;99556.81;6131713;28;97342;-60
2021/09/07 02:15:46;;;;;;;;;21.00;19.00;;;;;14.94;51.34;99564.50;6165834;28;97314;-61
2021/09/07 02:18:49;;;;;;;;;20.40;19.00;;;;;14.96;51.31;99559.66;6166330;28;97509;-61
2021/09/07 02:21:53;;;;;;;;;21.00;18.40;;;;;14.92;51.47;99554.94;6164429;28;96939;-61
2021/09/07 02:24:57;;;;;;;;;25.00;22.00;;;;;14.89;51.40;99552.69;6167020;28;97294;-62
2021/09/07 02:28:03;;;;;;;;;23.00;21.00;;;;;14.92;51.77;99555.75;6167779;28;97480;-61
2021/09/07 02:31:07;;;;;;;;;25.00;23.00;;;;;14.88;51.48;99557.28;6142725;28;98452;-61
2021/09/07 02:34:11;;;;;;;;;23.00;21.00;;;;;14.84;51.39;99552.56;6145880;28;96713;-61
2021/09/07 02:37:17;;;;;;;;;25.80;21.80;;;;;14.73;51.51;99549.59;6163830;28;97413;-61
2021/09/07 02:40:22;;;;;;;;;22.75;20.00;;;;;14.74;51.50;99550.41;6148085;28;100268;-60
2021/09/07 02:43:28;;;;;;;;;26.00;24.00;;;;;14.76;51.31;99555.63;6170489;28;97416;-61
2021/09/07 02:46:33;;;;;;;;;23.40;22.00;;;;;14.79;51.46;99557.84;6152939;28;96875;-61
2021/09/07 02:49:37;;;;;;;;;26.40;25.00;;;;;14.82;51.49;99560.09;6164087;28;97383;-61
2021/09/07 02:52:40;;;;;;;;;23.25;22.00;;;;;14.79;51.51;99557.84;6172104;28;96649;-61
2021/09/07 02:55:46;;;;;;;;;22.00;20.80;;;;;14.80;51.70;99559.53;6161652;28;96626;-61
2021/09/07 02:58:54;;;;;;;;;23.40;21.40;;;;;14.85;51.84;99551.50;6147150;28;96418;-60
2021/09/07 03:01:58;;;;;;;;;23.60;20.60;;;;;14.92;51.71;99547.59;6171597;28;98873;-60
2021/09/07 03:05:03;;;;;;;;;19.60;19.00;;;;;14.96;51.43;99546.06;6189658;28;97320;-60
2021/09/07 03:08:07;;;;;;;;;23.00;21.20;;;;;14.98;52.05;99545.84;6164638;28;96689;-60
2021/09/07 03:11:11;;;;;;;;;20.00;19.00;;;;;14.98;51.88;99554.00;6174577;28;97651;-60
2021/09/07 03:14:16;;;;;;;;;24.60;21.60;;;;;14.99;51.87;99552.94;6167556;28;98762;-61
2021/09/07 03:17:19;;;;;;;;;23.00;21.00;;;;;14.99;52.00;99553.78;6187845;28;96497;-59
2021/09/07 03:20:23;;;;;;;;;21.60;20.00;;;;;15.06;52.13;99553.63;6180249;28;97186;-60
2021/09/07 03:23:27;;;;;;;;;21.60;19.40;;;;;15.13;52.01;99557.91;6169308;28;97318;-61
2021/09/07 03:26:30;;;;;;;;;19.25;18.25;;;;;15.15;52.21;99560.38;6162964;28;98446;-59
2021/09/07 03:29:35;;;;;;;;;22.00;19.50;;;;;15.01;52.43;99531.78;6158666;28;97119;-61
2021/09/07 03:32:40;;;;;;;;;21.40;20.00;;;;;15.17;52.34;99559.09;6157322;28;97830;-61
2021/09/07 03:35:44;;;;;;;;;22.00;21.00;;;;;15.23;52.41;99562.78;6185826;28;96974;-61
2021/09/07 03:38:48;;;;;;;;;23.00;20.60;;;;;15.26;51.91;99562.28;6188244;28;97471;-61
2021/09/07 03:41:51;;;;;;;;;21.00;19.00;;;;;15.28;52.46;99557.47;6173517;28;96598;-61
2021/09/07 03:44:57;;;;;;;;;24.00;20.00;;;;;15.23;52.24;99551.91;6148424;28;97684;-61
2021/09/07 03:48:00;;;;;;;;;23.60;20.00;;;;;15.21;52.16;99556.72;6154536;28;97432;-61
2021/09/07 03:51:04;;;;;;;;;17.60;17.00;;;;;15.21;52.04;99559.44;6161755;28;96710;-60
2021/09/07 03:54:07;;;;;;;;;20.80;19.00;;;;;15.22;51.71;99544.81;6141890;28;99569;-60
2021/09/07 03:57:10;;;;;;;;;23.00;21.00;;;;;15.20;51.82;99546.13;6156471;28;97825;-59
2021/09/07 04:00:17;;;;;;;;;23.00;19.00;;;;;15.20;51.80;99552.34;6164513;28;97635;-60
2021/09/07 04:03:23;;;;;;;;;22.25;21.25;;;;;15.25;51.99;99559.81;6152799;28;98572;-60
2021/09/07 04:06:26;;;;;;;;;23.00;21.40;;;;;15.29;52.01;99550.97;6172608;28;97406;-61
2021/09/07 04:09:30;;;;;;;;;22.60;21.00;;;;;15.33;51.93;99546.72;6144696;28;96858;-61
2021/09/07 04:12:35;;;;;;;;;22.20;20.00;;;;;15.35;51.69;99546.44;6178031;28;96661;-60
2021/09/07 04:15:40;;;;;;;;;18.00;18.00;;;;;15.36;51.73;99537.25;6174135;28;97219;-61
2021/09/07 04:18:44;;;;;;;;;23.40;21.00;;;;;15.40;51.66;99531.09;6173185;28;97486;-59
2021/09/07 04:21:47;;;;;;;;;20.40;19.00;;;;;15.42;51.86;99531.69;6162299;28;97440;-61
2021/09/07 04:24:50;;;;;;;;;24.00;21.00;;;;;15.41;51.87;99529.22;6166454;28;97140;-59
2021/09/07 04:27:54;;;;;;;;;21.00;20.00;;;;;15.44;52.09;99543.13;6163359;28;97029;-60
2021/09/07 04:30:58;;;;;;;;;22.60;20.00;;;;;15.48;52.13;99546.22;6162947;28;97475;-62
2021/09/07 04:34:02;;;;;;;;;23.00;21.50;;;;;15.54;51.98;99558.91;6156095;28;96598;-60
2021/09/07 04:37:06;;;;;;;;;21.20;20.00;;;;;15.58;51.95;99558.19;6136694;28;96629;-61
2021/09/07 04:40:09;;;;;;;;;22.80;20.80;;;;;15.69;51.90;99552.94;6164744;28;97065;-62
2021/09/07 04:43:12;;;;;;;;;22.00;21.00;;;;;15.74;52.17;99559.34;6150368;28;98420;-60
2021/09/07 04:46:19;;;;;;;;;24.20;19.80;;;;;15.76;52.33;99559.94;6163392;28;97511;-60
2021/09/07 04:49:23;;;;;;;;;25.25;21.00;;;;;15.78;52.27;99571.41;6158306;28;97449;-61
2021/09/07 04:52:26;;;;;;;;;23.60;21.40;;;;;15.80;52.05;99563.00;6146338;28;96686;-61
2021/09/07 04:55:30;;;;;;;;;22.00;19.00;;;;;15.86;51.97;99565.59;6164393;28;96624;-61
2021/09/07 04:58:33;;;;;;;;;21.00;19.00;;;;;15.89;52.07;99567.81;6161419;28;97329;-60
2021/09/07 05:01:38;;;;;;;;;22.60;19.00;;;;;15.94;51.77;99567.09;6169383;28;96812;-61
2021/09/07 05:04:43;;;;;;;;;22.00;21.50;;;;;15.94;51.76;99567.09;6142281;28;97179;-61
2021/09/07 05:07:46;;;;;;;;;23.00;20.40;;;;;16.03;51.73;99576.53;6146527;28;96644;-61
2021/09/07 05:10:49;;;;;;;;;20.00;18.00;;;;;16.10;51.92;99557.38;6170831;28;97472;-60
2021/09/07 05:13:53;;;;;;;;;21.00;20.80;;;;;16.20;52.19;99552.13;6156887;28;96616;-62
2021/09/07 05:16:57;;;;;;;;;20.80;19.80;;;;;16.26;52.24;99548.44;6183195;28;97546;-60
2021/09/07 05:20:01;;;;;;;;;22.00;20.00;;;;;16.40;52.28;99560.69;6168214;28;98169;-61
2021/09/07 05:23:04;;;;;;;;;19.60;18.20;;;;;16.56;52.35;99559.91;6154690;28;97507;-62
2021/09/07 05:26:08;;;;;;;;;19.50;18.50;;;;;16.71;52.06;99565.66;6126496;28;96883;-61
2021/09/07 05:29:11;;;;;;;;;21.60;17.60;;;;;16.87;51.68;99564.03;6155971;28;98271;-61
2021/09/07 05:32:16;;;;;;;;;21.00;19.00;;;;;16.97;51.65;99564.19;6180100;28;97545;-60
2021/09/07 05:35:19;;;;;;;;;20.50;19.50;;;;;17.06;51.08;99560.00;6172082;28;98050;-60
2021/09/07 05:38:22;;;;;;;;;20.00;18.60;;;;;17.09;50.66;99555.97;6150297;28;99476;-62
2021/09/07 05:41:26;;;;;;;;;23.40;22.00;;;;;16.87;50.84;99534.06;6161887;28;97827;-61
2021/09/07 05:44:29;;;;;;;;;20.60;20.00;;;;;17.14;51.12;99559.59;6168831;28;96897;-62
2021/09/07 05:47:34;;;;;;;;;23.00;21.00;;;;;17.26;51.01;99562.22;6179173;28;97142;-61
2021/09/07 05:50:37;;;;;;;;;21.50;19.00;;;;;17.42;51.02;99555.09;6157442;28;98410;-61
2021/09/07 05:53:41;;;;;;;;;26.00;22.00;;;;;17.64;50.32;99564.22;6157778;28;97272;-61
2021/09/07 05:56:45;;;;;;;;;24.60;23.00;;;;;17.85;50.19;99562.56;6143947;28;97419;-60
2021/09/07 05:59:48;;;;;;;;;22.25;20.25;;;;;18.08;50.15;99565.88;6169100;28;97462;-66
2021/09/07 06:02:57;;;;;;;;;21.80;21.80;;;;;18.30;49.00;99567.78;6160401;28;96612;-62
2021/09/07 06:06:00;;;;;;;;;22.60;21.60;;;;;18.49;48.81;99561.72;6145635;28;96713;-63
2021/09/07 06:09:03;;;;;;;;;21.80;19.00;;;;;18.73;48.40;99561.44;6156026;28;97468;-62
2021/09/07 06:12:08;;;;;;;;;23.00;19.60;;;;;18.93;48.11;99561.63;6169476;28;97287;-62
2021/09/07 06:15:13;;;;;;;;;20.00;18.60;;;;;19.14;48.29;99563.47;6163278;28;96927;-61
2021/09/07 06:18:18;;;;;;;;;19.80;17.00;;;;;19.34;46.69;99558.16;6171931;28;96611;-63
2021/09/07 06:21:22;;;;;;;;;19.00;18.00;;;;;19.43;47.00;99562.03;6176392;28;98206;-64
2021/09/07 06:24:35;;;;;;;;;24.00;20.00;;;;;19.56;47.35;99565.44;6177826;28;97729;-62
2021/09/07 06:27:39;;;;;;;;;19.60;19.40;;;;;19.70;47.20;99577.56;6170019;28;98195;-63
2021/09/07 06:30:42;;;;;;;;;20.00;19.00;;;;;19.92;47.58;99578.25;6168253;28;96606;-61
2021/09/07 06:33:47;;;;;;;;;18.60;18.00;;;;;20.17;46.99;99574.81;6144478;28;97166;-64
2021/09/07 06:36:52;;;;;;;;;17.20;16.00;;;;;20.41;45.54;99580.66;6179177;28;96977;-62
2021/09/07 06:39:58;;;;;;;;;22.75;21.00;;;;;20.57;44.77;99572.22;6179142;28;97367;-62
2021/09/07 06:43:01;;;;;;;;;17.00;15.40;;;;;20.69;44.70;99570.06;6168706;28;97075;-62
2021/09/07 06:46:04;;;;;;;;;21.20;20.00;;;;;20.85;44.47;99575.56;6155574;28;98588;-63
2021/09/07 06:49:09;;;;;;;;;21.60;19.40;;;;;21.02;44.96;99581.59;6138691;28;96664;-63
2021/09/07 06:52:13;;;;;;;;;18.00;18.00;;;;;21.11;44.72;99577.25;6152061;28;96584;-61
2021/09/07 06:55:16;;;;;;;;;19.00;18.00;;;;;21.18;44.85;99572.31;6164954;28;96563;-64
2021/09/07 06:58:19;;;;;;;;;17.00;17.00;;;;;21.31;43.98;99570.94;6175356;28;96710;-63
2021/09/07 07:01:22;;;;;;;;;21.20;20.00;;;;;21.35;44.62;99577.53;6165228;28;97398;-62
2021/09/07 07:04:28;;;;;;;;;19.00;18.00;;;;;21.40;44.00;99581.09;6165453;28;96748;-63
2021/09/07 07:07:31;;;;;;;;;22.60;20.60;;;;;21.36;44.40;99582.72;6165365;28;96607;-62
2021/09/07 07:10:34;;;;;;;;;24.00;21.00;;;;;21.40;44.37;99572.06;6180994;28;97193;-63
2021/09/07 07:13:38;;;;;;;;;25.00;23.00;;;;;21.43;44.18;99576.97;6140981;28;97806;-62
2021/09/07 07:16:41;;;;;;;;;23.20;22.80;;;;;21.46;44.30;99566.25;6176155;28;97269;-64
2021/09/07 07:19:49;;;;;;;;;25.00;23.00;;;;;21.46;44.07;99570.94;6157071;28;96997;-61
2021/09/07 07:22:53;;;;;;;;;22.33;22.00;;;;;21.65;43.92;99572.00;6152826;28;96886;-62
2021/09/07 07:25:56;;;;;;;;;21.60;20.60;;;;;21.86;44.16;99581.00;6172110;28;96802;-63
2021/09/07 07:29:00;;;;;;;;;24.60;23.20;;;;;22.08;44.10;99583.47;6175502;28;97449;-61
2021/09/07 07:32:03;;;;;;;;;21.00;19.00;;;;;22.34;43.77;99587.72;6164322;28;97041;-61
2021/09/07 07:35:09;;;;;;;;;22.00;20.00;;;;;22.57;43.26;99583.50;6163868;28;97438;-61
2021/09/07 07:38:12;;;;;;;;;20.60;20.00;;;;;22.76;43.41;99576.28;6178598;28;97429;-59
2021/09/07 07:41:15;;;;;;;;;21.50;21.00;;;;;23.02;42.40;99587.94;6169555;28;97124;-62
2021/09/07 07:44:19;;;;;;;;;25.40;22.40;;;;;23.26;43.03;99586.88;6162705;28;97573;-60
2021/09/07 07:47:23;;;;;;;;;24.40;22.40;;;;;23.49;41.61;99584.53;6168827;28;96450;-59
2021/09/07 07:50:29;;;;;;;;;25.00;23.00;;;;;23.75;41.59;99589.50;6150368;28;98667;-62
2021/09/07 07:53:32;;;;;;;;;21.00;19.00;;;;;23.86;40.86;99597.66;6166306;28;97686;-61
2021/09/07 07:56:36;;;;;;;;;24.00;20.20;;;;;23.88;40.30;99584.41;6151834;28;96703;-61
2021/09/07 07:59:40;;;;;;;;;23.00;21.00;;;;;24.07;40.50;99593.56;6179797;28;97497;-61
2021/09/07 08:02:44;;;;;;;;;22.50;20.75;;;;;24.28;40.17;99602.47;6154258;28;97142;-61
2021/09/07 08:05:59;;;;;;;;;22.00;21.00;;;;;24.39;40.01;99599.25;6148202;28;100200;-60
2021/09/07 08:09:03;;;;;;;;;24.20;21.80;;;;;24.53;40.02;99607.66;6160957;28;97245;-63
2021/09/07 08:12:07;;;;;;;;;24.00;21.00;;;;;24.80;39.19;99598.72;6166392;28;96933;-61
2021/09/07 08:15:12;;;;;;;;;24.60;22.20;;;;;25.13;39.54;99596.84;6179082;28;97542;-62
2021/09/07 08:18:15;;;;;;;;;23.00;21.60;;;;;25.72;39.23;99599.75;6146682;28;98337;-62
2021/09/07 08:21:21;;;;;;;;;21.00;20.00;;;;;26.37;37.49;99605.16;6161509;28;97464;-61
2021/09/07 08:24:24;;;;;;;;;23.00;21.00;;;;;26.89;37.01;99606.50;6148858;28;97669;-63
2021/09/07 08:27:27;;;;;;;;;19.80;19.00;;;;;27.60;35.97;99604.00;6171888;28;97810;-61
2021/09/07 08:30:31;;;;;;;;;22.00;20.60;;;;;27.94;34.90;99609.72;6167471;28;98075;-62
2021/09/07 08:33:34;;;;;;;;;22.50;20.50;;;;;28.12;35.13;99611.47;6159927;28;97536;-62
2021/09/07 08:36:38;;;;;;;;;25.40;22.40;;;;;28.31;34.65;99617.56;6161795;28;96705;-60
2021/09/07 08:39:42;;;;;;;;;23.00;19.50;;;;;28.59;33.93;99617.34;6164012;28;97447;-61
2021/09/07 08:42:45;;;;;;;;;22.00;20.25;;;;;29.02;34.15;99615.47;6142482;28;97970;-63
2021/09/07 08:45:52;;;;;;;;;23.20;20.80;;;;;29.60;33.48;99612.19;6164725;28;97220;-62
2021/09/07 08:48:55;;;;;;;;;23.80;21.60;;;;;30.14;32.40;99615.31;6161967;28;96770;-60
2021/09/07 08:52:00;;;;;;;;;21.40;21.40;;;;;30.70;31.71;99614.06;6169213;28;97466;-63
2021/09/07 08:55:05;;;;;;;;;24.00;22.00;;;;;30.90;30.81;99606.88;6160047;28;97469;-63
2021/09/07 08:58:09;;;;;;;;;21.00;20.00;;;;;30.94;30.15;99616.19;6146973;28;96983;-63
2021/09/07 09:01:15;;;;;;;;;22.20;20.60;;;;;30.81;30.73;99612.53;6136861;28;97453;-63
2021/09/07 09:04:27;;;;;;;;;20.60;20.00;;;;;30.68;31.24;99607.22;6151346;28;97637;-62
2021/09/07 09:07:31;;;;;;;;;22.40;20.00;;;;;30.53;31.70;99617.78;6173425;28;97487;-61
2021/09/07 09:10:34;;;;;;;;;24.00;22.00;;;;;30.48;31.78;99615.19;6187006;28;96537;-60
2021/09/07 09:13:43;;;;;;;;;22.40;20.60;;;;;30.36;32.31;99619.78;6167064;28;98991;-62
2021/09/07 09:16:48;;;;;;;;;20.60;20.00;;;;;30.39;32.05;99614.41;6185843;28;98104;-60
2021/09/07 09:19:53;;;;;;;;;25.00;22.00;;;;;30.57;31.92;99611.53;6176456;28;96695;-61
2021/09/07 09:22:59;;;;;;;;;24.00;21.50;;;;;30.61;31.11;99618.88;6185370;28;98056;-63
2021/09/07 09:26:02;;;;;;;;;20.00;19.00;;;;;30.63;31.77;99610.19;6167673;28;97177;-61
2021/09/07 09:29:06;;;;;;;;;19.00;19.00;;;;;30.52;32.05;99618.09;6176196;28;97954;-61
2021/09/07 09:32:11;;;;;;;;;21.00;20.00;;;;;30.36;32.34;99611.44;6164372;28;98094;-61
2021/09/07 09:35:15;;;;;;;;;23.00;20.40;;;;;30.24;32.11;99598.25;6146199;28;96747;-62
2021/09/07 09:38:20;;;;;;;;;21.50;18.00;;;;;30.08;32.17;99588.84;6174646;28;96784;-64
2021/09/07 09:41:24;;;;;;;;;24.25;22.25;;;;;30.20;32.08;99600.09;6155460;28;97583;-62
2021/09/07 09:44:28;;;;;;;;;21.60;19.80;;;;;30.18;32.73;99607.13;6165050;28;96976;-64
2021/09/07 09:47:37;;;;;;;;;22.00;19.50;;;;;30.05;32.72;99607.03;6177560;28;97528;-61
2021/09/07 09:50:42;;;;;;;;;19.80;19.00;;;;;29.96;33.82;99597.06;6159102;28;98030;-60
2021/09/07 09:53:49;;;;;;;;;20.00;18.00;;;;;29.85;33.91;99601.34;6142875;28;97430;-63
2021/09/07 09:56:53;;;;;;;;;23.00;18.00;;;;;29.73;33.97;99599.22;6177734;28;97535;-61
2021/09/07 09:59:56;;;;;;;;;18.20;16.80;;;;;29.62;32.97;99592.38;6183725;28;97140;-62
2021/09/07 10:03:01;;;;;;;;;20.00;18.00;;;;;29.50;34.27;99587.53;6171355;28;97466;-62
2021/09/07 10:06:06;;;;;;;;;18.60;17.60;;;;;29.40;35.05;99589.81;6162859;28;96569;-62
2021/09/07 10:09:16;;;;;;;;;20.00;18.00;;;;;29.50;35.09;99592.25;6180741;28;96741;-62
2021/09/07 10:12:25;;;;;;;;;19.00;18.00;;;;;29.67;35.52;99592.22;6190191;28;97199;-64
2021/09/07 10:15:32;;;;;;;;;20.00;17.60;;;;;30.22;34.01;99588.63;6190920;28;96586;-63
2021/09/07 10:18:50;;;;;;;;;20.40;17.80;;;;;30.80;33.32;99590.56;6152865;28;98355;-63
2021/09/07 10:25:52;;;;;;;;;20.00;17.00;;;;;31.14;30.87;99581.97;6164803;28;97565;-63
2021/09/07 10:28:58;;;;;;;;;17.40;16.40;;;;;31.32;30.63;99582.66;6161121;28;97383;-61
2021/09/07 10:32:01;;;;;;;;;18.00;15.25;;;;;31.77;31.36;99583.50;6171572;28;96721;-62
2021/09/07 10:35:14;;;;;;;;;16.00;15.00;;;;;32.27;30.90;99589.97;6184543;28;97405;-62
2021/09/07 10:38:18;;;;;;;;;16.60;15.40;;;;;32.68;29.77;99586.97;6166282;28;97740;-63
2021/09/07 10:41:47;;;;;;;;;15.00;13.00;;;;;33.31;28.08;99587.25;6168788;28;97501;-62
2021/09/07 10:45:01;;;;;;;;;15.00;13.25;;;;;33.80;25.65;99579.47;6150539;28;96737;-62
2021/09/07 10:48:30;;;;;;;;;12.00;12.00;;;;;33.77;25.69;99580.97;6173128;28;97302;-62
2021/09/07 10:52:12;;;;;;;;;12.00;10.80;;;;;33.88;24.99;99578.47;6161640;28;96661;-62
2021/09/07 10:55:18;;;;;;;;;15.00;12.00;;;;;34.09;24.91;99578.19;6166418;28;97448;-63
2021/09/07 10:58:33;;;;;;;;;14.00;12.80;;;;;34.39;24.65;99567.38;6155929;28;97216;-63
2021/09/07 11:01:38;;;;;;;;;12.80;10.00;;;;;34.35;23.89;99564.50;6160357;28;97149;-62
2021/09/07 11:04:50;;;;;;;;;11.00;10.00;;;;;34.45;22.33;99572.34;6163125;28;96683;-65
2021/09/07 11:08:04;;;;;;;;;11.00;10.00;;;;;34.78;22.68;99561.53;6141038;28;96983;-63
2021/09/07 11:11:26;;;;;;;;;11.00;10.00;;;;;34.97;21.94;99568.31;6150424;28;96777;-62
2021/09/07 11:14:31;;;;;;;;;11.40;10.00;;;;;35.02;21.28;99570.81;6174655;28;97473;-60
2021/09/07 11:17:35;;;;;;;;;14.00;12.00;;;;;35.03;21.58;99552.84;6185897;28;96610;-62
2021/09/07 11:20:41;;;;;;;;;10.20;10.00;;;;;34.94;22.14;99552.25;6144997;28;99709;-61
2021/09/07 11:23:44;;;;;;;;;8.80;8.80;;;;;35.14;21.23;99562.25;6181143;28;97211;-63
2021/09/07 11:26:47;;;;;;;;;11.00;10.60;;;;;35.26;21.62;99561.34;6179788;28;97501;-61
2021/09/07 11:29:54;;;;;;;;;12.00;11.00;;;;;35.16;22.47;99552.31;6171066;28;97527;-65
2021/09/07 11:32:59;;;;;;;;;11.00;10.60;;;;;35.28;21.89;99557.00;6145929;28;96664;-65
2021/09/07 11:36:05;;;;;;;;;10.00;10.00;;;;;35.45;21.42;99553.72;6121701;28;98553;-63
2021/09/07 11:39:19;;;;;;;;;11.60;11.00;;;;;35.13;21.77;99553.06;6165676;28;97375;-62
2021/09/07 11:42:23;;;;;;;;;11.00;10.60;;;;;34.79;22.11;99553.94;6159628;28;98699;-63
2021/09/07 11:45:32;;;;;;;;;11.00;10.00;;;;;34.48;22.29;99542.78;6155670;28;97804;-62
2021/09/07 11:48:36;;;;;;;;;10.60;10.60;;;;;34.06;22.67;99536.97;6145765;28;98114;-63
2021/09/07 11:51:41;;;;;;;;;12.00;10.00;;;;;34.03;23.45;99537.66;6158312;28;98412;-62
2021/09/07 11:54:47;;;;;;;;;11.00;11.00;;;;;34.04;23.92;99544.91;6162799;28;96554;-62
2021/09/07 11:57:50;;;;;;;;;12.00;11.00;;;;;34.24;24.12;99536.25;6162248;28;97451;-64
2021/09/07 12:01:04;;;;;;;;;11.00;10.00;;;;;34.35;23.64;99536.50;6165057;28;97492;-62
2021/09/07 12:04:07;;;;;;;;;12.00;10.00;;;;;34.41;22.91;99535.03;6173221;28;96746;-62
2021/09/07 12:07:11;;;;;;;;;12.00;11.00;;;;;34.65;23.03;99536.78;6160272;28;97092;-63
2021/09/07 12:10:14;;;;;;;;;11.50;11.50;;;;;34.83;22.59;99528.78;6132158;28;97514;-62
2021/09/07 12:13:19;;;;;;;;;11.60;11.00;;;;;34.69;22.32;99526.50;6170214;28;96702;-60
2021/09/07 12:16:24;;;;;;;;;13.00;12.00;;;;;34.80;22.99;99521.13;6176902;28;97259;-62
2021/09/07 12:19:33;;;;;;;;;12.25;11.00;;;;;34.65;23.38;99520.78;6179288;28;96668;-63
2021/09/07 12:22:40;;;;;;;;;13.60;12.00;;;;;34.79;23.53;99517.53;6174800;28;96518;-61
2021/09/07 12:25:47;;;;;;;;;13.00;12.00;;;;;34.97;23.08;99517.88;6182280;28;96697;-63
2021/09/07 12:28:50;;;;;;;;;11.00;10.00;;;;;35.13;22.78;99516.63;6176805;28;97495;-62
2021/09/07 12:32:03;;;;;;;;;11.60;11.00;;;;;35.08;22.14;99516.94;6172266;28;98184;-63
2021/09/07 12:35:07;;;;;;;;;12.00;12.00;;;;;35.17;23.01;99503.53;6179033;28;97184;-61
2021/09/07 12:38:13;;;;;;;;;13.60;12.00;;;;;35.28;23.03;99512.13;6158816;28;97357;-62
2021/09/07 12:41:19;;;;;;;;;12.00;11.00;;;;;34.99;22.55;99496.69;6163777;28;97483;-62
2021/09/07 12:44:22;;;;;;;;;10.00;9.60;;;;;34.85;24.06;99504.81;6166696;28;97517;-63
2021/09/07 12:47:27;;;;;;;;;12.00;11.80;;;;;34.83;23.03;99511.97;6165381;28;97432;-63
2021/09/07 12:50:31;;;;;;;;;12.80;11.20;;;;;34.92;23.20;99502.19;6156641;28;97597;-63
2021/09/07 12:53:38;;;;;;;;;10.20;10.20;;;;;34.83;23.17;99507.19;6165306;28;97278;-60
2021/09/07 12:56:41;;;;;;;;;13.50;13.00;;;;;34.85;23.64;99502.00;6162313;28;96869;-61
2021/09/07 12:59:45;;;;;;;;;11.00;10.00;;;;;35.05;23.49;99491.59;6178042;28;97542;-62
2021/09/07 13:02:50;;;;;;;;;12.60;12.00;;;;;35.19;23.14;99491.91;6169942;28;97586;-61
2021/09/07 13:05:53;;;;;;;;;12.75;11.50;;;;;35.11;22.56;99504.16;6175262;28;96600;-63
2021/09/07 13:09:00;;;;;;;;;12.00;10.00;;;;;35.16;23.09;99501.03;6177449;28;97118;-61
2021/09/07 13:12:03;;;;;;;;;11.75;11.50;;;;;35.14;22.70;99492.19;6169517;28;97449;-63
2021/09/07 13:15:07;;;;;;;;;13.00;12.00;;;;;34.85;22.58;99493.59;6161895;28;96923;-62
2021/09/07 13:18:13;;;;;;;;;14.00;12.50;;;;;34.56;23.14;99494.16;6167432;28;97038;-62
2021/09/07 13:21:17;;;;;;;;;13.40;11.80;;;;;34.13;24.39;99495.16;6167511;28;97331;-62
2021/09/07 13:24:20;;;;;;;;;11.00;10.00;;;;;33.65;24.34;99499.94;6161125;28;97063;-60
2021/09/07 13:27:23;;;;;;;;;13.00;12.00;;;;;33.38;25.12;99484.06;6163490;28;97127;-62
2021/09/07 13:30:26;;;;;;;;;16.00;14.50;;;;;33.20;24.96;99486.34;6169966;28;96820;-61
2021/09/07 13:33:31;;;;;;;;;11.00;10.00;;;;;32.89;24.60;99484.25;6168317;28;97875;-60
2021/09/07 13:36:34;;;;;;;;;12.00;12.00;;;;;32.66;24.94;99475.63;6172686;28;97514;-61
2021/09/07 13:39:37;;;;;;;;;12.80;11.80;;;;;32.43;25.07;99468.91;6182030;28;96676;-60
2021/09/07 13:42:41;;;;;;;;;11.00;11.00;;;;;32.23;25.18;99483.84;6177431;28;97996;-61
2021/09/07 13:45:44;;;;;;;;;12.60;11.60;;;;;32.02;25.47;99483.13;6182786;28;97597;-60
2021/09/07 13:48:49;;;;;;;;;10.40;9.00;;;;;32.00;25.48;99477.09;6180763;28;97546;-62
2021/09/07 13:51:52;;;;;;;;;11.50;11.00;;;;;32.12;25.80;99466.75;6182970;28;99612;-61
2021/09/07 13:54:55;;;;;;;;;11.00;9.00;;;;;32.25;25.03;99465.56;6184503;28;97676;-62
2021/09/07 13:57:59;;;;;;;;;10.20;9.00;;;;;32.52;24.90;99475.16;6172049;28;96744;-62
2021/09/07 14:01:03;;;;;;;;;11.00;10.00;;;;;32.77;24.79;99461.16;6181467;28;97447;-59
2021/09/07 14:04:08;;;;;;;;;8.60;8.20;;;;;32.95;24.63;99466.06;6174987;28;96992;-61
2021/09/07 14:07:12;;;;;;;;;13.60;10.60;;;;;32.92;24.43;99449.22;6180469;28;97559;-62
2021/09/07 14:10:15;;;;;;;;;11.20;10.00;;;;;32.98;24.58;99451.41;6166596;28;97961;-60
2021/09/07 14:13:18;;;;;;;;;11.00;10.00;;;;;33.01;24.41;99456.28;6178280;28;96702;-63